Time;durP1;ratioP1;P1;durP2;ratioP2;P2;SDS_P1;SDS_P2;PMS_P1;PMS_P2;Temp;Humidity;BMP_temperature;BMP_pressure;BME280_temperature;BME280_humidity;BME280_pressure;Samples;Min_cycle;Max_cycle;Signal;HPM_P1;HPM_P2
2023/10/06 04:00:28;;;;;;;4.27;2.40;;;11.20;79.70;;;;;;6107408;23;20473;-71
2023/10/06 04:02:54;;;;;;;4.13;3.07;;;11.20;79.70;;;;;;4995544;28;20453;-72
2023/10/06 04:05:22;;;;;;;3.10;2.73;;;11.10;79.90;;;;;;4995359;28;20484;-71
2023/10/06 04:07:49;;;;;;;3.30;2.50;;;11.10;79.90;;;;;;4995444;28;20829;-72
2023/10/06 04:10:16;;;;;;;3.90;2.67;;;11.00;79.80;;;;;;4995350;28;20477;-72
2023/10/06 04:12:43;;;;;;;4.20;3.20;;;11.00;79.50;;;;;;4995279;28;20519;-72
2023/10/06 04:15:14;;;;;;;3.80;2.57;;;11.00;79.30;;;;;;4995810;28;20576;-71
2023/10/06 04:17:42;;;;;;;4.93;2.40;;;11.10;79.10;;;;;;4996063;28;20449;-71
2023/10/06 04:20:14;;;;;;;3.60;2.37;;;11.00;79.20;;;;;;4995201;28;20484;-72
2023/10/06 04:22:42;;;;;;;5.20;2.80;;;11.00;79.50;;;;;;4994793;28;20837;-72
2023/10/06 04:25:11;;;;;;;3.07;2.77;;;11.00;79.80;;;;;;4995009;28;20445;-71
2023/10/06 04:27:37;;;;;;;4.20;3.20;;;11.00;79.80;;;;;;4995064;28;20465;-72
2023/10/06 04:30:11;;;;;;;4.87;3.80;;;11.00;80.40;;;;;;4995031;28;20460;-71
2023/10/06 04:32:38;;;;;;;5.90;3.17;;;11.10;80.90;;;;;;4994901;28;20496;-71
2023/10/06 04:35:15;;;;;;;4.40;3.87;;;11.10;81.00;;;;;;4994911;28;20536;-72
2023/10/06 04:37:42;;;;;;;4.80;3.83;;;11.10;81.10;;;;;;4994864;28;20522;-72
2023/10/06 04:40:14;;;;;;;4.43;3.10;;;11.10;81.00;;;;;;4994788;28;20452;-72
2023/10/06 04:42:43;;;;;;;4.03;3.63;;;11.10;81.10;;;;;;4994699;28;20558;-71
2023/10/06 04:45:12;;;;;;;4.00;2.60;;;11.10;81.20;;;;;;4994336;28;20938;-72
2023/10/06 04:47:40;;;;;;;4.60;2.90;;;11.10;81.10;;;;;;4994671;28;20868;-71
2023/10/06 04:50:10;;;;;;;5.03;3.67;;;11.00;80.90;;;;;;4994618;28;20449;-71
2023/10/06 04:52:37;;;;;;;4.33;3.40;;;10.90;80.80;;;;;;4994545;28;20461;-71
2023/10/06 04:55:05;;;;;;;3.93;3.13;;;10.90;80.60;;;;;;4994543;28;20503;-71
2023/10/06 04:57:33;;;;;;;3.67;2.77;;;10.90;80.40;;;;;;4994405;28;20445;-72
2023/10/06 05:00:00;;;;;;;3.37;3.07;;;10.90;80.50;;;;;;4994466;28;20449;-72
2023/10/06 05:02:26;;;;;;;6.40;3.37;;;10.90;80.60;;;;;;4994024;28;20477;-72
2023/10/06 05:04:53;;;;;;;4.73;3.20;;;10.90;80.70;;;;;;4994406;28;20442;-71
2023/10/06 05:07:21;;;;;;;4.30;3.40;;;10.80;80.80;;;;;;4994236;28;20850;-71
2023/10/06 05:09:48;;;;;;;4.20;2.87;;;10.80;81.00;;;;;;4993978;28;20938;-72
2023/10/06 05:12:14;;;;;;;4.33;2.70;;;10.80;80.90;;;;;;4994207;28;20495;-71
2023/10/06 05:14:41;;;;;;;5.60;3.10;;;10.60;80.60;;;;;;4994233;28;20452;-72
2023/10/06 05:17:08;;;;;;;3.90;3.00;;;10.40;81.20;;;;;;4994167;28;20495;-71
2023/10/06 05:19:35;;;;;;;4.33;3.67;;;10.50;81.30;;;;;;4994127;28;20452;-72
2023/10/06 05:22:03;;;;;;;4.67;3.73;;;10.40;81.20;;;;;;4993759;28;20990;-71
2023/10/06 05:24:32;;;;;;;3.47;2.83;;;10.40;81.50;;;;;;4994110;28;20449;-72
2023/10/06 05:26:58;;;;;;;5.27;3.13;;;10.30;81.40;;;;;;4993634;28;20853;-72
2023/10/06 05:29:26;;;;;;;3.73;2.90;;;10.30;81.50;;;;;;4994032;28;20445;-71
2023/10/06 05:31:52;;;;;;;3.87;3.20;;;10.20;81.70;;;;;;4993634;28;21028;-72
2023/10/06 05:34:19;;;;;;;3.73;3.20;;;10.20;82.10;;;;;;4994422;28;20541;-72
2023/10/06 05:36:46;;;;;;;6.20;3.67;;;10.20;82.00;;;;;;4994154;28;20441;-72
2023/10/06 05:39:12;;;;;;;5.77;3.90;;;10.30;82.10;;;;;;4993937;28;20460;-71
2023/10/06 05:41:44;;;;;;;6.57;4.50;;;10.40;82.80;;;;;;4993803;28;20469;-71
2023/10/06 05:44:12;;;;;;;5.27;3.60;;;10.40;85.20;;;;;;4993899;28;20472;-72
2023/10/06 05:46:39;;;;;;;5.30;4.23;;;10.60;85.40;;;;;;4993782;28;20579;-72
2023/10/06 05:49:08;;;;;;;6.40;4.10;;;10.70;85.40;;;;;;4993819;28;20452;-72
2023/10/06 05:51:38;;;;;;;5.37;4.87;;;10.90;85.80;;;;;;4993544;28;20461;-71
2023/10/06 05:54:09;;;;;;;6.10;4.70;;;10.90;86.20;;;;;;4993716;28;20458;-71
2023/10/06 05:56:37;;;;;;;6.77;4.40;;;11.00;86.60;;;;;;4993791;28;20426;-71
2023/10/06 05:59:05;;;;;;;3.90;3.50;;;11.10;86.10;;;;;;4993711;28;20515;-71
2023/10/06 06:01:34;;;;;;;5.13;3.87;;;11.20;85.50;;;;;;4993343;28;20516;-71
2023/10/06 06:04:08;;;;;;;4.07;3.67;;;11.30;84.70;;;;;;4993622;28;20452;-71
2023/10/06 06:06:36;;;;;;;4.83;4.00;;;11.40;83.90;;;;;;4993579;28;20960;-71
2023/10/06 06:09:13;;;;;;;8.40;7.60;;;11.50;83.80;;;;;;4994405;28;20448;-72
2023/10/06 06:11:40;;;;;;;4.97;4.53;;;11.50;83.20;;;;;;4997455;28;20468;-71
2023/10/06 06:14:08;;;;;;;5.53;4.30;;;11.30;82.10;;;;;;4997510;28;20448;-71
2023/10/06 06:16:34;;;;;;;5.03;3.93;;;11.30;82.70;;;;;;4997436;28;20437;-72
2023/10/06 06:19:01;;;;;;;4.83;2.90;;;11.90;81.30;;;;;;4997429;28;20452;-72
2023/10/06 06:21:28;;;;;;;4.90;3.40;;;12.90;78.60;;;;;;4997293;28;20465;-72
2023/10/06 06:23:57;;;;;;;4.37;3.37;;;13.60;76.80;;;;;;4997301;28;20441;-71
2023/10/06 06:26:24;;;;;;;5.60;4.40;;;14.40;72.90;;;;;;4997219;28;20491;-72
2023/10/06 06:28:52;;;;;;;4.60;3.47;;;15.50;71.10;;;;;;4996888;28;20966;-73
2023/10/06 06:31:20;;;;;;;3.13;2.63;;;16.40;68.80;;;;;;4997089;28;20479;-73
2023/10/06 06:33:48;;;;;;;3.87;2.87;;;17.40;65.90;;;;;;4996815;28;20946;-72
2023/10/06 06:36:15;;;;;;;4.67;3.60;;;18.30;63.80;;;;;;4997075;28;20473;-72
2023/10/06 06:38:42;;;;;;;6.23;3.60;;;19.10;60.90;;;;;;4997037;28;20460;-73
2023/10/06 06:41:08;;;;;;;5.03;3.20;;;19.10;59.70;;;;;;4996948;28;20465;-73
2023/10/06 06:43:35;;;;;;;3.60;2.90;;;18.80;60.20;;;;;;4996931;28;20803;-72
2023/10/06 06:46:02;;;;;;;5.90;3.43;;;18.90;60.40;;;;;;4996872;28;20448;-72
2023/10/06 06:48:30;;;;;;;5.07;3.40;;;19.60;58.70;;;;;;4996859;28;20449;-72
2023/10/06 06:50:56;;;;;;;3.77;2.70;;;19.90;58.10;;;;;;4996724;28;20464;-73
2023/10/06 06:53:23;;;;;;;4.50;2.90;;;20.30;57.70;;;;;;4996837;28;20495;-73
2023/10/06 06:55:51;;;;;;;3.57;3.17;;;20.60;57.40;;;;;;4997529;28;20456;-73
2023/10/06 06:58:17;;;;;;;4.00;3.00;;;20.70;57.00;;;;;;4996665;28;20461;-73
2023/10/06 07:00:47;;;;;;;3.83;3.20;;;20.90;56.80;;;;;;4996392;28;20484;-73
2023/10/06 07:03:14;;;;;;;4.87;4.23;;;21.40;56.50;;;;;;4996625;28;20436;-73
2023/10/06 07:05:42;;;;;;;4.90;3.70;;;22.00;55.10;;;;;;4996592;28;20536;-73
2023/10/06 07:08:11;;;;;;;5.27;3.83;;;22.90;54.10;;;;;;4996383;28;20491;-74
2023/10/06 07:10:46;;;;;;;5.10;3.40;;;23.40;53.40;;;;;;4996050;28;20938;-73
2023/10/06 07:13:13;;;;;;;3.87;3.27;;;23.40;53.30;;;;;;4996493;28;20464;-73
2023/10/06 07:15:39;;;;;;;4.80;3.30;;;23.40;53.40;;;;;;4996391;28;20445;-74
2023/10/06 07:18:06;;;;;;;6.07;3.57;;;23.90;52.50;;;;;;4996369;28;20441;-74
2023/10/06 07:20:33;;;;;;;3.87;3.47;;;24.50;51.70;;;;;;4994996;28;20524;-75
2023/10/06 07:23:01;;;;;;;3.67;3.33;;;25.20;50.80;;;;;;4996303;28;20444;-74
2023/10/06 07:25:28;;;;;;;4.03;3.00;;;26.10;48.90;;;;;;4995914;28;20445;-72
2023/10/06 07:27:57;;;;;;;4.80;3.00;;;26.50;48.10;;;;;;4996102;28;20484;-73
2023/10/06 07:30:25;;;;;;;3.87;3.07;;;27.00;47.30;;;;;;4995766;28;20964;-74
2023/10/06 07:32:54;;;;;;;3.70;3.03;;;27.40;47.20;;;;;;4996133;28;20524;-73
2023/10/06 07:35:30;;;;;;;4.40;2.90;;;27.90;45.20;;;;;;4996065;28;20477;-73
2023/10/06 07:37:58;;;;;;;3.63;2.80;;;28.20;45.20;;;;;;4996065;28;20516;-73
2023/10/06 07:40:27;;;;;;;5.97;3.23;;;28.20;45.90;;;;;;4995559;28;20961;-74
2023/10/06 07:42:55;;;;;;;4.03;3.60;;;28.10;45.50;;;;;;4995590;28;20876;-73
2023/10/06 07:45:23;;;;;;;3.63;3.10;;;27.40;46.20;;;;;;4995613;28;20997;-73
2023/10/06 07:47:50;;;;;;;3.80;3.17;;;26.60;47.70;;;;;;4995798;28;20477;-73
2023/10/06 07:50:17;;;;;;;4.40;3.47;;;25.60;49.10;;;;;;4995803;28;20539;-73
2023/10/06 07:52:44;;;;;;;4.30;3.43;;;24.60;50.90;;;;;;4995657;28;20850;-73
2023/10/06 07:55:12;;;;;;;3.90;2.93;;;23.40;52.60;;;;;;4995392;28;20938;-72
2023/10/06 07:57:42;;;;;;;5.67;3.90;;;22.50;55.00;;;;;;4995704;28;20448;-72
2023/10/06 08:00:11;;;;;;;5.90;3.70;;;21.30;58.20;;;;;;4995570;28;20500;-72
2023/10/06 08:02:39;;;;;;;7.50;3.73;;;20.40;59.50;;;;;;4995076;28;20485;-72
2023/10/06 08:05:08;;;;;;;3.40;2.60;;;20.00;62.00;;;;;;4995652;28;20546;-73
2023/10/06 08:07:35;;;;;;;3.60;2.90;;;19.70;62.50;;;;;;4995399;28;20535;-72
2023/10/06 08:10:03;;;;;;;4.80;3.67;;;18.90;64.50;;;;;;4995409;28;20469;-72
2023/10/06 08:12:30;;;;;;;3.97;2.90;;;18.80;66.10;;;;;;4995285;28;20465;-72
2023/10/06 08:14:58;;;;;;;5.20;3.20;;;18.70;66.90;;;;;;4995344;28;20449;-72
2023/10/06 08:17:27;;;;;;;3.70;3.00;;;18.10;68.70;;;;;;4995241;28;20448;-72
2023/10/06 08:19:54;;;;;;;4.80;3.37;;;17.90;68.50;;;;;;4995254;28;20449;-72
2023/10/06 08:22:22;;;;;;;3.33;3.03;;;18.10;69.00;;;;;;4995082;28;20497;-72
2023/10/06 08:24:49;;;;;;;3.20;2.90;;;18.10;68.10;;;;;;4995129;28;20529;-72
2023/10/06 08:27:21;;;;;;;4.70;2.57;;;18.00;68.60;;;;;;4994683;28;20875;-71
2023/10/06 08:29:47;;;;;;;3.40;2.80;;;18.20;69.10;;;;;;4995049;28;20428;-73
2023/10/06 08:32:17;;;;;;;3.33;3.00;;;18.30;69.00;;;;;;4994561;28;20472;-72
2023/10/06 08:34:46;;;;;;;5.27;3.37;;;17.90;69.00;;;;;;4994956;28;20449;-76
2023/10/06 08:37:12;;;;;;;4.47;3.17;;;17.90;68.70;;;;;;4994883;28;20509;-75
2023/10/06 08:39:44;;;;;;;4.00;3.27;;;17.80;68.70;;;;;;4994809;28;20468;-75
2023/10/06 08:42:11;;;;;;;4.40;3.20;;;17.60;68.70;;;;;;4994658;28;21057;-74
2023/10/06 08:44:39;;;;;;;4.33;2.93;;;17.30;69.70;;;;;;4994699;28;20449;-74
2023/10/06 08:47:09;;;;;;;3.50;2.93;;;17.10;71.20;;;;;;4994648;28;20516;-73
2023/10/06 08:49:39;;;;;;;5.50;4.00;;;17.10;71.30;;;;;;4994653;28;20477;-74
2023/10/06 08:52:07;;;;;;;4.87;3.00;;;17.20;71.80;;;;;;4994572;28;20544;-74
2023/10/06 08:54:35;;;;;;;4.73;3.10;;;17.20;71.50;;;;;;4994585;28;20503;-72
2023/10/06 08:57:03;;;;;;;3.40;3.10;;;17.10;71.60;;;;;;4994507;28;20528;-74
2023/10/06 08:59:31;;;;;;;4.33;2.97;;;17.00;72.70;;;;;;4994140;28;20448;-73
2023/10/06 09:02:00;;;;;;;5.43;3.20;;;17.00;71.90;;;;;;4994050;28;20565;-74
2023/10/06 09:04:34;;;;;;;4.70;3.00;;;16.70;72.50;;;;;;4994406;28;20503;-74
2023/10/06 09:07:11;;;;;;;4.40;2.93;;;16.80;73.10;;;;;;4994353;28;20469;-74
2023/10/06 09:09:38;;;;;;;6.20;3.33;;;16.70;73.20;;;;;;4995118;28;20441;-74
2023/10/06 09:12:05;;;;;;;5.37;3.00;;;16.80;72.30;;;;;;4994215;28;20523;-74
2023/10/06 09:14:33;;;;;;;4.60;3.37;;;16.70;73.10;;;;;;4994209;28;20818;-74
2023/10/06 09:17:02;;;;;;;4.60;3.07;;;16.70;73.50;;;;;;4993886;28;20927;-74
2023/10/06 09:19:47;;;;;;;5.20;3.30;;;17.00;71.40;;;;;;4994163;28;20496;-74
2023/10/06 09:22:16;;;;;;;5.43;3.80;;;17.20;71.30;;;;;;4994103;28;20493;-73
2023/10/06 09:24:55;;;;;;;4.90;3.30;;;17.40;70.90;;;;;;4994064;28;20456;-74
2023/10/06 09:27:25;;;;;;;4.07;2.87;;;17.40;71.10;;;;;;4994023;28;20469;-74
2023/10/06 09:29:59;;;;;;;5.03;2.90;;;17.60;70.80;;;;;;4993984;28;20456;-73
2023/10/06 09:32:26;;;;;;;3.33;2.57;;;17.70;70.60;;;;;;4994766;28;20861;-73
2023/10/06 09:34:57;;;;;;;3.77;2.53;;;17.70;71.20;;;;;;4993992;28;20453;-73
2023/10/06 09:37:25;;;;;;;3.97;3.43;;;17.80;70.80;;;;;;4993688;28;20890;-74
2023/10/06 09:40:14;;;;;;;4.53;3.30;;;17.80;71.20;;;;;;4993959;28;20531;-75
2023/10/06 09:42:43;;;;;;;4.00;3.57;;;17.80;70.20;;;;;;4993885;28;20481;-74
2023/10/06 09:45:15;;;;;;;4.57;3.50;;;17.70;71.20;;;;;;4992789;28;20843;-74
2023/10/06 09:47:49;;;;;;;5.07;3.20;;;17.40;71.80;;;;;;4993465;28;21005;-75
2023/10/06 09:50:21;;;;;;;7.00;4.70;;;17.60;73.00;;;;;;4993907;28;20496;-74
2023/10/06 09:52:50;;;;;;;4.20;3.00;;;17.70;72.30;;;;;;4993528;28;20914;-74
2023/10/06 09:55:19;;;;;;;2.73;2.17;;;17.80;71.60;;;;;;4993783;28;20460;-74
2023/10/06 09:57:48;;;;;;;4.67;3.17;;;17.90;70.60;;;;;;4993736;28;20441;-75
2023/10/06 10:00:16;;;;;;;3.50;2.60;;;17.90;71.10;;;;;;4993719;28;20524;-79
2023/10/06 10:02:45;;;;;;;3.90;2.60;;;17.90;71.80;;;;;;4993422;28;20488;-74
2023/10/06 10:05:13;;;;;;;5.03;2.57;;;18.00;70.70;;;;;;4993651;28;20858;-75
2023/10/06 10:07:41;;;;;;;5.83;3.30;;;17.90;70.70;;;;;;4993537;28;20527;-74
2023/10/06 10:10:11;;;;;;;4.07;2.90;;;17.90;70.80;;;;;;4993558;28;20488;-74
2023/10/06 10:12:54;;;;;;;3.93;2.97;;;17.90;70.60;;;;;;4994373;28;20973;-74
2023/10/06 10:15:34;;;;;;;3.57;2.70;;;18.00;70.80;;;;;;5049704;23;20504;-69
2023/10/06 10:18:08;;;;;;;3.53;2.63;;;18.10;70.70;;;;;;4993688;28;20863;-70
2023/10/06 10:20:36;;;;;;;3.90;2.80;;;18.20;70.70;;;;;;4993668;28;20434;-70
2023/10/06 10:23:04;;;;;;;3.93;2.57;;;18.40;70.80;;;;;;4993598;28;20450;-69
2023/10/06 10:25:36;;;;;;;3.40;2.50;;;18.60;70.50;;;;;;4993465;28;20511;-67
2023/10/06 10:28:14;;;;;;;3.30;2.60;;;18.70;69.50;;;;;;4993489;28;20531;-68
2023/10/06 10:30:56;;;;;;;5.23;2.90;;;18.70;68.60;;;;;;4993557;28;20876;-68
2023/10/06 10:33:28;;;;;;;3.93;2.80;;;18.80;68.50;;;;;;4993540;28;20433;-69
2023/10/06 10:36:19;;;;;;;3.87;3.07;;;19.00;68.50;;;;;;4993471;28;20504;-69
2023/10/06 10:38:56;;;;;;;3.80;2.37;;;19.00;67.10;;;;;;4993434;28;20485;-69
2023/10/06 10:41:26;;;;;;;3.70;2.80;;;18.90;67.50;;;;;;4993429;28;20429;-70
2023/10/06 10:43:55;;;;;;;5.50;2.90;;;18.80;67.60;;;;;;4993461;28;20457;-70
2023/10/06 10:46:31;;;;;;;4.90;3.37;;;18.70;68.10;;;;;;4993394;28;20552;-70
2023/10/06 10:48:58;;;;;;;3.10;2.40;;;18.90;66.90;;;;;;4993479;28;20496;-70
2023/10/06 10:51:25;;;;;;;3.10;2.23;;;19.00;66.90;;;;;;4993371;28;20449;-70
2023/10/06 10:53:54;;;;;;;6.27;2.70;;;19.00;64.90;;;;;;4993276;28;20449;-69
2023/10/06 10:56:34;;;;;;;3.77;2.57;;;19.00;66.30;;;;;;4995897;28;20473;-69
2023/10/06 10:59:02;;;;;;;3.17;2.00;;;19.40;66.10;;;;;;4997463;28;20475;-69
2023/10/06 11:01:31;;;;;;;3.37;2.27;;;19.60;65.30;;;;;;4996716;28;20456;-70
2023/10/06 11:04:21;;;;;;;4.80;2.67;;;19.60;65.40;;;;;;4996619;28;20445;-68
2023/10/06 11:06:49;;;;;;;4.13;2.90;;;19.60;64.60;;;;;;4996542;28;20547;-69
2023/10/06 11:09:26;;;;;;;4.33;2.77;;;19.60;64.80;;;;;;4996406;28;20484;-68
2023/10/06 11:11:56;;;;;;;3.33;2.80;;;19.80;63.50;;;;;;4996505;28;20429;-70
2023/10/06 11:14:25;;;;;;;4.30;3.00;;;19.90;61.40;;;;;;4997630;28;20851;-71
2023/10/06 11:16:52;;;;;;;4.30;2.80;;;19.70;63.70;;;;;;4996071;28;20465;-69
2023/10/06 11:19:20;;;;;;;3.30;2.10;;;20.00;63.60;;;;;;4996103;28;20931;-72
2023/10/06 11:21:48;;;;;;;4.70;2.90;;;20.20;64.90;;;;;;4996082;28;21006;-70
2023/10/06 11:24:25;;;;;;;5.10;2.73;;;20.30;64.70;;;;;;4996411;28;20499;-70
2023/10/06 11:26:53;;;;;;;4.60;2.60;;;20.40;64.60;;;;;;4996296;28;20433;-70
2023/10/06 11:29:32;;;;;;;4.87;3.27;;;20.20;63.20;;;;;;4996125;28;20492;-70
2023/10/06 11:32:01;;;;;;;4.40;3.10;;;20.30;57.40;;;;;;4996208;28;20452;-71
2023/10/06 11:34:28;;;;;;;4.20;3.33;;;20.60;57.10;;;;;;4996107;28;20442;-71
2023/10/06 11:36:56;;;;;;;4.60;4.07;;;20.90;55.50;;;;;;4995749;28;20461;-70
2023/10/06 11:39:24;;;;;;;4.80;4.27;;;21.10;53.10;;;;;;4996028;28;20508;-71
2023/10/06 11:41:55;;;;;;;4.10;3.40;;;21.30;50.80;;;;;;4995993;28;20445;-71
2023/10/06 11:44:22;;;;;;;4.10;2.57;;;21.50;51.30;;;;;;4996039;28;20504;-69
2023/10/06 11:46:50;;;;;;;3.30;3.00;;;21.90;57.30;;;;;;4996106;28;20464;-70
2023/10/06 11:49:20;;;;;;;3.60;2.90;;;21.90;56.50;;;;;;4995782;28;20487;-70
2023/10/06 11:51:47;;;;;;;4.50;3.00;;;21.90;56.40;;;;;;4995773;28;20445;-71
2023/10/06 11:54:14;;;;;;;3.90;3.00;;;22.20;54.20;;;;;;4995912;28;20456;-69
2023/10/06 11:56:48;;;;;;;3.40;2.93;;;22.40;53.50;;;;;;4995667;28;20500;-69
2023/10/06 11:59:24;;;;;;;3.70;2.40;;;22.80;52.60;;;;;;4995737;28;20425;-69
2023/10/06 12:01:51;;;;;;;3.60;2.80;;;23.20;53.50;;;;;;4995557;28;20457;-71
2023/10/06 12:04:26;;;;;;;5.03;2.70;;;23.50;50.80;;;;;;4995690;28;20451;-69
2023/10/06 12:06:52;;;;;;;3.63;2.40;;;23.60;50.30;;;;;;4994497;28;20969;-72
2023/10/06 12:09:29;;;;;;;4.23;2.60;;;23.70;50.00;;;;;;4995359;28;20480;-73
2023/10/06 12:11:57;;;;;;;3.53;2.60;;;23.60;50.80;;;;;;4996132;28;20555;-73
2023/10/06 12:14:26;;;;;;;3.70;3.10;;;23.60;49.20;;;;;;4996203;28;20453;-73
2023/10/06 12:16:54;;;;;;;4.00;2.03;;;23.60;50.20;;;;;;4995287;28;20464;-73
2023/10/06 12:19:21;;;;;;;3.27;2.80;;;23.80;51.20;;;;;;4995573;28;20445;-73
2023/10/06 12:21:48;;;;;;;3.53;3.00;;;24.10;49.80;;;;;;4995676;28;20484;-74
2023/10/06 12:24:15;;;;;;;3.37;3.00;;;24.40;50.00;;;;;;4995783;28;20448;-73
2023/10/06 12:26:41;;;;;;;4.00;3.10;;;24.70;47.70;;;;;;4995095;28;20477;-72
2023/10/06 12:29:08;;;;;;;3.57;2.67;;;24.80;47.70;;;;;;4994939;28;20485;-73
2023/10/06 12:31:38;;;;;;;3.40;2.60;;;25.00;45.70;;;;;;4995803;28;20445;-73
2023/10/06 12:34:05;;;;;;;4.40;3.10;;;25.20;43.70;;;;;;4995282;28;20485;-75
2023/10/06 12:36:35;;;;;;;3.70;2.43;;;25.20;42.70;;;;;;4996465;28;20480;-75
2023/10/06 12:39:04;;;;;;;3.40;2.90;;;25.60;42.20;;;;;;4996571;28;20448;-75
2023/10/06 12:41:31;;;;;;;3.40;2.80;;;25.90;41.70;;;;;;4996245;28;20453;-76
2023/10/06 12:44:04;;;;;;;3.77;3.13;;;26.20;40.70;;;;;;4995420;28;20454;-73
2023/10/06 12:46:33;;;;;;;4.00;3.30;;;26.40;39.40;;;;;;4995838;28;20492;-76
2023/10/06 12:49:06;;;;;;;5.03;3.10;;;26.70;39.30;;;;;;4998072;28;20503;-76
2023/10/06 12:51:33;;;;;;;4.23;3.27;;;26.80;39.30;;;;;;5000135;28;20418;-77
2023/10/06 12:54:00;;;;;;;3.43;3.13;;;26.90;39.30;;;;;;4998493;28;20820;-77
2023/10/06 12:56:28;;;;;;;3.70;3.07;;;27.20;38.50;;;;;;4997053;28;20505;-75
2023/10/06 12:58:54;;;;;;;3.70;3.00;;;27.20;39.20;;;;;;4997095;28;20504;-75
2023/10/06 13:01:25;;;;;;;3.93;3.17;;;27.30;38.90;;;;;;4998130;28;20457;-75
2023/10/06 13:03:53;;;;;;;3.73;2.83;;;27.30;42.20;;;;;;4997280;28;20434;-74
2023/10/06 13:06:24;;;;;;;4.40;2.83;;;27.30;44.70;;;;;;4995523;28;20499;-76
2023/10/06 13:08:50;;;;;;;4.73;2.90;;;27.10;43.90;;;;;;4996279;28;20488;-76
2023/10/06 13:11:18;;;;;;;5.43;2.60;;;27.00;44.40;;;;;;4997285;28;20444;-76
2023/10/06 13:13:49;;;;;;;3.30;2.63;;;26.40;45.40;;;;;;4997424;28;20480;-75
2023/10/06 13:16:16;;;;;;;3.57;2.70;;;26.40;45.70;;;;;;4997762;28;21002;-76
2023/10/06 13:18:43;;;;;;;3.20;2.60;;;26.70;46.10;;;;;;4998718;28;20456;-76
2023/10/06 13:21:10;;;;;;;2.90;2.57;;;27.00;44.80;;;;;;4996461;28;20572;-76
2023/10/06 13:23:38;;;;;;;2.90;2.23;;;27.20;44.20;;;;;;4996453;28;20446;-76
2023/10/06 13:26:05;;;;;;;3.40;2.47;;;27.30;43.40;;;;;;4998599;28;20469;-76
2023/10/06 13:28:33;;;;;;;3.33;2.80;;;27.50;43.20;;;;;;4995872;28;21048;-76
2023/10/06 13:31:00;;;;;;;3.50;2.97;;;27.60;42.70;;;;;;4999164;28;20524;-74
2023/10/06 13:33:26;;;;;;;3.80;3.10;;;27.80;41.30;;;;;;4997795;28;20444;-74
2023/10/06 13:35:52;;;;;;;3.17;2.73;;;28.40;41.40;;;;;;4996440;28;20476;-74
2023/10/06 13:38:19;;;;;;;4.20;2.57;;;29.10;40.60;;;;;;4995073;28;20449;-75
2023/10/06 13:40:47;;;;;;;3.90;2.70;;;29.80;40.40;;;;;;4995303;28;20217;-74
2023/10/06 13:43:14;;;;;;;3.23;2.37;;;30.80;39.20;;;;;;4994035;28;20449;-74
2023/10/06 13:45:43;;;;;;;2.73;2.20;;;32.40;37.30;;;;;;4993774;28;20469;-75
2023/10/06 13:48:12;;;;;;;3.70;2.70;;;34.20;35.40;;;;;;4993669;28;20457;-74
2023/10/06 13:50:40;;;;;;;3.23;2.70;;;35.60;33.90;;;;;;4993745;28;20502;-75
2023/10/06 13:53:08;;;;;;;4.17;2.90;;;37.00;31.60;;;;;;4993787;28;20448;-75
2023/10/06 13:55:35;;;;;;;3.23;2.90;;;38.30;29.60;;;;;;4993767;28;20474;-75
2023/10/06 13:58:04;;;;;;;2.83;2.50;;;39.30;29.50;;;;;;4993772;28;20946;-75
2023/10/06 14:00:35;;;;;;;2.90;2.60;;;40.10;28.80;;;;;;4993725;28;20448;-75
2023/10/06 14:03:05;;;;;;;4.83;2.30;;;40.70;28.00;;;;;;4993806;28;20843;-75
2023/10/06 14:05:33;;;;;;;3.80;3.03;;;41.10;27.40;;;;;;4994044;28;20268;-75
2023/10/06 14:08:00;;;;;;;3.50;3.20;;;40.90;27.30;;;;;;4994400;28;20201;-72
2023/10/06 14:10:29;;;;;;;3.83;2.87;;;40.00;28.10;;;;;;4993286;28;20229;-73
2023/10/06 14:13:00;;;;;;;3.17;2.33;;;39.00;28.10;;;;;;4993643;28;20448;-73
2023/10/06 14:15:40;;;;;;;3.50;3.03;;;38.40;28.90;;;;;;4993593;28;20480;-75
2023/10/06 14:18:08;;;;;;;3.67;2.80;;;37.70;30.10;;;;;;4993508;28;20495;-72
2023/10/06 14:20:35;;;;;;;2.93;2.60;;;37.10;31.40;;;;;;4993571;28;20444;-74
2023/10/06 14:23:02;;;;;;;4.10;2.63;;;36.30;33.00;;;;;;4993528;28;20448;-75
2023/10/06 14:25:32;;;;;;;3.33;2.80;;;34.80;34.90;;;;;;4993522;28;20496;-73
2023/10/06 14:28:00;;;;;;;4.30;2.90;;;33.40;36.50;;;;;;4993466;28;20430;-74
2023/10/06 14:30:30;;;;;;;4.40;3.40;;;32.60;37.70;;;;;;4994793;28;20484;-73
2023/10/06 14:33:14;;;;;;;2.77;2.47;;;32.20;38.50;;;;;;4997100;28;20985;-74
2023/10/06 14:35:53;;;;;;;4.00;2.97;;;31.70;39.60;;;;;;4997152;28;20547;-73
2023/10/06 14:46:41;;;;;;;4.03;3.13;;;29.70;42.70;;;;;;4996866;28;20440;-73
2023/10/06 14:49:12;;;;;;;2.80;2.27;;;29.50;43.20;;;;;;4997200;28;20464;-74
2023/10/06 14:51:40;;;;;;;3.50;2.93;;;29.50;42.80;;;;;;4996846;28;20433;-73
2023/10/06 14:54:07;;;;;;;6.80;2.83;;;29.70;43.20;;;;;;4996516;28;20862;-73
2023/10/06 14:56:34;;;;;;;4.30;3.20;;;29.80;42.70;;;;;;4997055;28;20559;-74
2023/10/06 14:59:01;;;;;;;4.50;3.23;;;30.00;42.90;;;;;;4996936;28;20445;-74
2023/10/06 15:01:29;;;;;;;3.27;2.83;;;29.90;42.70;;;;;;4996882;28;20456;-73
2023/10/06 15:03:59;;;;;;;3.40;3.00;;;29.20;44.00;;;;;;4996356;28;20942;-72
2023/10/06 15:06:26;;;;;;;3.77;2.70;;;28.70;44.60;;;;;;4996815;28;20484;-73
2023/10/06 15:08:53;;;;;;;6.30;3.50;;;28.70;45.40;;;;;;4996425;28;21279;-73
2023/10/06 15:11:20;;;;;;;5.13;3.30;;;28.60;45.80;;;;;;4996599;28;20495;-73
2023/10/06 15:13:48;;;;;;;3.77;3.00;;;28.00;46.30;;;;;;4996703;28;20468;-72
2023/10/06 15:16:18;;;;;;;4.03;2.57;;;27.60;46.90;;;;;;4996146;28;20512;-71
2023/10/06 15:18:47;;;;;;;3.67;2.60;;;27.10;48.70;;;;;;4997031;28;20422;-72
2023/10/06 15:21:15;;;;;;;3.37;2.80;;;26.60;49.00;;;;;;4996615;28;20488;-72
2023/10/06 15:23:47;;;;;;;3.60;2.87;;;26.10;50.00;;;;;;4996745;28;20495;-73
2023/10/06 15:26:14;;;;;;;3.03;2.50;;;25.60;50.60;;;;;;4996275;28;20504;-71
2023/10/06 15:28:42;;;;;;;3.17;2.60;;;25.20;51.50;;;;;;4996042;28;20977;-72
2023/10/06 15:31:13;;;;;;;3.37;2.73;;;24.90;52.80;;;;;;4996383;28;20484;-72
2023/10/06 15:33:40;;;;;;;3.10;2.63;;;24.50;53.70;;;;;;4996441;28;20527;-73
2023/10/06 15:36:09;;;;;;;5.10;3.30;;;24.20;54.40;;;;;;4996168;28;20488;-72
2023/10/06 15:38:37;;;;;;;5.00;3.30;;;24.00;54.70;;;;;;4996488;28;20511;-72
2023/10/06 15:41:08;;;;;;;3.97;2.50;;;23.70;55.40;;;;;;4995415;28;20961;-72
2023/10/06 15:43:35;;;;;;;4.30;3.33;;;23.60;55.60;;;;;;4995692;28;20450;-73
2023/10/06 15:46:03;;;;;;;4.10;3.10;;;23.50;57.00;;;;;;4996159;28;20902;-71
2023/10/06 15:48:30;;;;;;;3.90;3.00;;;23.20;56.50;;;;;;4996005;28;20847;-71
2023/10/06 15:51:01;;;;;;;5.10;3.23;;;23.10;57.50;;;;;;4995877;28;20476;-73
2023/10/06 15:53:28;;;;;;;4.50;3.27;;;23.00;57.70;;;;;;4996330;28;20455;-72
2023/10/06 15:56:01;;;;;;;5.20;3.30;;;22.80;57.70;;;;;;4995378;28;21016;-71
2023/10/06 15:58:28;;;;;;;5.20;2.90;;;22.80;58.10;;;;;;4995681;28;20425;-70
2023/10/06 16:00:55;;;;;;;4.03;2.87;;;22.70;58.60;;;;;;4995991;28;20476;-73
2023/10/06 16:03:22;;;;;;;5.60;3.13;;;22.50;59.10;;;;;;4996203;28;20448;-73
2023/10/06 16:05:49;;;;;;;3.90;2.80;;;22.40;59.20;;;;;;4996003;28;20584;-73
2023/10/06 16:08:16;;;;;;;4.50;2.90;;;22.20;60.20;;;;;;4995706;28;20453;-72
2023/10/06 16:10:43;;;;;;;4.30;2.50;;;22.10;60.20;;;;;;4995474;28;20488;-72
2023/10/06 16:13:11;;;;;;;3.90;2.53;;;22.00;60.30;;;;;;4995813;28;20449;-71
2023/10/06 16:15:42;;;;;;;4.30;2.67;;;21.90;60.10;;;;;;5110583;23;20993;-74
2023/10/06 16:18:10;;;;;;;3.60;2.53;;;21.80;60.30;;;;;;5015034;28;20444;-73
2023/10/06 16:20:37;;;;;;;4.00;2.80;;;21.70;60.90;;;;;;5014590;28;20468;-74
2023/10/06 16:23:06;;;;;;;5.90;2.97;;;21.50;60.60;;;;;;5014889;28;20440;-76
2023/10/06 16:25:35;;;;;;;3.77;2.67;;;21.30;60.90;;;;;;5014715;28;20464;-74
2023/10/06 16:28:03;;;;;;;5.07;2.67;;;21.30;60.90;;;;;;5014738;28;20451;-74
2023/10/06 16:30:31;;;;;;;4.63;2.80;;;21.20;61.10;;;;;;5014277;28;21005;-73
2023/10/06 16:32:58;;;;;;;3.70;2.10;;;21.10;61.00;;;;;;5014293;28;20448;-73
2023/10/06 16:35:25;;;;;;;3.50;2.73;;;21.00;61.20;;;;;;5014291;28;20467;-74
2023/10/06 16:37:53;;;;;;;5.43;2.60;;;20.90;61.00;;;;;;5014620;28;20515;-74
2023/10/06 16:40:20;;;;;;;3.67;2.50;;;20.80;61.70;;;;;;5014647;28;20510;-74
2023/10/06 16:42:46;;;;;;;9.00;2.60;;;20.70;61.80;;;;;;5014251;28;20929;-75
2023/10/06 16:45:13;;;;;;;3.80;2.53;;;20.60;61.90;;;;;;5014008;28;20502;-75
2023/10/06 16:47:42;;;;;;;4.87;2.13;;;20.60;62.00;;;;;;5014326;28;20961;-74
2023/10/06 16:50:09;;;;;;;2.80;2.20;;;20.50;62.20;;;;;;5014323;28;20483;-73
2023/10/06 16:52:36;;;;;;;3.30;2.50;;;20.40;62.40;;;;;;5013721;28;20945;-74
2023/10/06 16:55:04;;;;;;;2.90;2.20;;;20.30;62.60;;;;;;5014139;28;20444;-74
2023/10/06 16:57:30;;;;;;;3.43;2.13;;;20.20;63.30;;;;;;5014206;28;20467;-74
2023/10/06 16:59:57;;;;;;;2.57;1.90;;;20.20;63.40;;;;;;5014106;28;20449;-74
2023/10/06 17:02:24;;;;;;;2.43;1.90;;;20.10;63.60;;;;;;5014304;28;20448;-73
2023/10/06 17:04:52;;;;;;;5.43;2.70;;;20.00;63.50;;;;;;5013906;28;20929;-72